Time;durP1;ratioP1;P1;durP2;ratioP2;P2;SDS_P1;SDS_P2;PMS_P1;PMS_P2;Temp;Humidity;BMP_temperature;BMP_pressure;BME280_temperature;BME280_humidity;BME280_pressure;Samples;Min_cycle;Max_cycle;Signal;HPM_P1;HPM_P2
2022/12/03 00:10:08;;;;;;;9.55;3.65;;;4.20;99.90;;;;;;6368477;22;20493;-89
2022/12/03 00:12:34;;;;;;;10.35;4.10;;;4.20;99.90;;;;;;6290100;22;20023;-88
2022/12/03 00:15:00;;;;;;;9.97;3.77;;;4.20;99.90;;;;;;6288695;22;20021;-90
2022/12/03 00:17:25;;;;;;;9.73;4.43;;;4.20;99.90;;;;;;6263558;22;20106;-92
2022/12/03 00:19:51;;;;;;;9.87;4.10;;;4.20;99.90;;;;;;6290365;22;20079;-95
2022/12/03 00:22:45;;;;;;;9.50;3.77;;;4.30;99.90;;;;;;6291943;22;20042;-92
2022/12/03 00:25:11;;;;;;;11.10;3.90;;;4.20;99.90;;;;;;6290311;22;20014;-91
2022/12/03 00:27:36;;;;;;;8.43;3.50;;;4.30;99.90;;;;;;6290076;22;20047;-90
2022/12/03 00:30:03;;;;;;;10.25;3.63;;;4.20;99.90;;;;;;6289904;22;20080;-93
2022/12/03 00:32:29;;;;;;;12.10;3.92;;;4.30;99.90;;;;;;6289104;22;20021;-92
2022/12/03 00:34:54;;;;;;;8.97;3.57;;;4.30;99.90;;;;;;6261708;22;20093;-90
2022/12/03 00:37:20;;;;;;;9.93;4.53;;;4.30;99.90;;;;;;6286908;22;20046;-91
2022/12/03 00:39:46;;;;;;;10.03;4.20;;;4.30;99.90;;;;;;6287192;22;20015;-95
2022/12/03 00:42:11;;;;;;;9.73;4.17;;;4.30;99.90;;;;;;6287921;22;20015;-93
2022/12/03 00:44:37;;;;;;;9.80;3.40;;;4.30;99.90;;;;;;6260754;22;20010;-91
2022/12/03 00:47:03;;;;;;;9.33;3.97;;;4.30;99.90;;;;;;6286309;22;20025;-91
2022/12/03 00:49:29;;;;;;;9.40;4.90;;;4.30;99.90;;;;;;6287810;22;20023;-94
2022/12/03 00:51:54;;;;;;;11.00;4.13;;;4.40;99.90;;;;;;6285187;22;20015;-96
2022/12/03 00:54:20;;;;;;;12.13;3.93;;;4.40;99.90;;;;;;6285173;22;20019;-91
2022/12/03 00:56:46;;;;;;;10.80;4.30;;;4.40;99.90;;;;;;6286782;22;20050;-94
2022/12/03 00:59:11;;;;;;;9.43;3.73;;;4.40;99.90;;;;;;6300224;22;20027;-89
2022/12/03 01:01:37;;;;;;;9.70;4.20;;;4.40;99.90;;;;;;6306604;22;20690;-90
2022/12/03 01:04:03;;;;;;;9.37;3.80;;;4.40;99.90;;;;;;6294528;22;20027;-91
2022/12/03 01:06:29;;;;;;;9.00;3.40;;;4.40;99.90;;;;;;6261911;22;20015;-91
2022/12/03 01:08:54;;;;;;;11.50;4.33;;;4.40;99.90;;;;;;6288331;22;20494;-91
2022/12/03 01:11:36;;;;;;;10.03;4.70;;;4.40;99.90;;;;;;6336133;22;20011;-89
2022/12/03 01:14:12;;;;;;;10.40;4.45;;;4.40;99.90;;;;;;6299540;22;20019;-95
2022/12/03 01:16:41;;;;;;;11.38;3.90;;;4.40;99.90;;;;;;6318690;22;20018;-94
2022/12/03 01:19:09;;;;;;;11.70;5.22;;;4.40;99.90;;;;;;6320761;22;20064;-91
2022/12/03 01:22:01;;;;;;;11.82;4.32;;;4.40;99.90;;;;;;6321041;22;20026;-92
2022/12/03 01:24:27;;;;;;;9.85;4.07;;;4.40;99.90;;;;;;6321449;22;20010;-96
2022/12/03 01:26:54;;;;;;;11.63;4.93;;;4.40;99.90;;;;;;6324172;22;20015;-96
2022/12/03 01:29:29;;;;;;;9.57;3.88;;;4.50;99.90;;;;;;6326216;22;20347;-91
2022/12/03 01:34:39;;;;;;;9.60;4.10;;;4.50;99.90;;;;;;6342438;22;20018;-90
2022/12/03 01:37:04;;;;;;;10.27;4.60;;;4.50;99.90;;;;;;6317352;22;20026;-92
2022/12/03 01:39:30;;;;;;;10.57;4.65;;;4.40;99.90;;;;;;6318104;22;20006;-91
2022/12/03 01:41:57;;;;;;;9.70;4.53;;;4.50;99.90;;;;;;6293120;22;20022;-89
2022/12/03 01:44:26;;;;;;;10.20;4.72;;;4.50;99.90;;;;;;6319338;22;20013;-91
2022/12/03 01:46:54;;;;;;;10.50;4.30;;;4.50;99.90;;;;;;6319465;22;20010;-94
2022/12/03 01:49:37;;;;;;;12.18;4.93;;;4.40;99.90;;;;;;6321203;22;20022;-90
2022/12/03 01:52:02;;;;;;;11.27;4.15;;;4.40;99.90;;;;;;6318997;22;20067;-90
2022/12/03 01:54:37;;;;;;;12.73;4.45;;;4.40;99.90;;;;;;6317315;22;20014;-89
2022/12/03 01:57:03;;;;;;;11.07;4.55;;;4.40;99.90;;;;;;6317304;22;20018;-90
2022/12/03 01:59:36;;;;;;;11.45;4.78;;;4.40;99.90;;;;;;6317872;22;20101;-91
2022/12/03 02:02:12;;;;;;;12.63;4.57;;;4.40;99.90;;;;;;6318078;22;20014;-95
2022/12/03 02:04:52;;;;;;;9.65;3.90;;;4.40;99.90;;;;;;6343748;22;20017;-89
2022/12/03 02:07:23;;;;;;;9.63;4.65;;;4.30;99.90;;;;;;6292755;22;20019;-90
2022/12/03 02:09:49;;;;;;;12.63;4.65;;;4.40;99.90;;;;;;6317370;22;20022;-90
2022/12/03 02:12:19;;;;;;;11.98;4.97;;;4.40;99.90;;;;;;6343820;22;20066;-91
2022/12/03 02:14:46;;;;;;;13.25;4.57;;;4.40;99.90;;;;;;6317713;22;20026;-94
2022/12/03 02:17:12;;;;;;;13.80;4.75;;;4.40;99.90;;;;;;6317647;22;20021;-91
2022/12/03 02:19:38;;;;;;;14.32;5.18;;;4.40;99.90;;;;;;6317350;22;20089;-93
2022/12/03 02:22:27;;;;;;;11.05;4.63;;;4.40;99.90;;;;;;6318347;22;20061;-90
2022/12/03 02:25:12;;;;;;;12.65;4.78;;;4.40;99.90;;;;;;6317535;22;20439;-90
2022/12/03 02:27:38;;;;;;;11.65;5.00;;;4.40;99.90;;;;;;6317078;22;20020;-89
2022/12/03 02:30:05;;;;;;;11.57;4.85;;;4.40;99.90;;;;;;6317525;22;20046;-90
2022/12/03 02:32:31;;;;;;;13.55;5.13;;;4.40;99.90;;;;;;6317294;22;20328;-94
2022/12/03 02:34:57;;;;;;;9.63;4.30;;;4.40;99.90;;;;;;6291800;22;20014;-93
2022/12/03 02:37:28;;;;;;;12.60;4.90;;;4.40;99.90;;;;;;6343549;22;20018;-90
2022/12/03 02:39:57;;;;;;;14.50;5.15;;;4.40;99.90;;;;;;6317649;22;20066;-96
2022/12/03 02:42:35;;;;;;;10.45;4.20;;;4.40;99.90;;;;;;6344157;22;20067;-90
2022/12/03 02:45:19;;;;;;;15.07;5.45;;;4.40;99.90;;;;;;6317753;22;20021;-92
2022/12/03 02:47:49;;;;;;;9.88;3.92;;;4.40;99.90;;;;;;6317973;22;20339;-93
2022/12/03 02:50:20;;;;;;;10.63;4.72;;;4.40;99.90;;;;;;6318233;22;20014;-90
2022/12/03 02:52:47;;;;;;;11.18;4.07;;;4.40;99.90;;;;;;6318292;22;20014;-94
2022/12/03 02:55:15;;;;;;;10.77;4.38;;;4.30;99.90;;;;;;6327622;22;20124;-90
2022/12/03 02:57:47;;;;;;;12.10;5.38;;;4.30;99.90;;;;;;6341039;22;20070;-92
2022/12/03 03:00:19;;;;;;;11.57;4.85;;;4.30;99.90;;;;;;6326032;22;20079;-92
2022/12/03 03:02:46;;;;;;;12.95;4.90;;;4.30;99.90;;;;;;6319710;22;20014;-96
2022/12/03 03:05:12;;;;;;;;;;;4.30;99.90;;;;;;6318673;22;20351;-96
2022/12/03 03:07:40;;;;;;;10.90;4.10;;;4.30;99.90;;;;;;6319384;22;19954;-92
2022/12/03 03:10:10;;;;;;;10.07;4.30;;;4.20;99.90;;;;;;6322035;22;20018;-95
2022/12/03 03:12:36;;;;;;;12.18;4.95;;;4.20;99.90;;;;;;6320582;22;20064;-96
2022/12/03 03:15:03;;;;;;;11.38;4.55;;;4.20;99.90;;;;;;6320376;22;20018;-91
2022/12/03 03:17:29;;;;;;;13.80;5.05;;;4.20;99.90;;;;;;6320101;22;20010;-93
2022/12/03 03:19:55;;;;;;;15.73;5.47;;;4.20;99.90;;;;;;6319513;22;20010;-94
2022/12/03 03:22:21;;;;;;;15.38;6.00;;;4.20;99.90;;;;;;6319830;22;20803;-91
2022/12/03 03:24:47;;;;;;;13.90;6.23;;;4.20;99.90;;;;;;6293806;22;20011;-95
2022/12/03 03:27:12;;;;;;;12.70;5.47;;;4.20;99.90;;;;;;6319401;22;20018;-94
2022/12/03 03:29:38;;;;;;;12.65;5.40;;;4.20;99.90;;;;;;6297268;22;20074;-92
2022/12/03 03:32:04;;;;;;;13.70;6.10;;;4.10;99.90;;;;;;6294916;22;20105;-91
2022/12/03 03:34:32;;;;;;;11.17;4.40;;;4.20;99.90;;;;;;6319156;22;20018;-90
2022/12/03 03:36:58;;;;;;;13.77;5.20;;;4.10;99.90;;;;;;6319080;22;20022;-89
2022/12/03 03:39:24;;;;;;;11.00;4.88;;;4.10;99.90;;;;;;6320741;22;20117;-96
2022/12/03 03:41:50;;;;;;;13.15;4.85;;;4.20;99.90;;;;;;6320837;22;20017;-90
2022/12/03 03:44:16;;;;;;;11.82;4.85;;;4.20;99.90;;;;;;6294323;22;20026;-92
2022/12/03 03:46:42;;;;;;;12.00;5.60;;;4.20;99.90;;;;;;6319771;22;20015;-92
2022/12/03 03:49:09;;;;;;;13.80;6.10;;;4.20;99.90;;;;;;6319077;22;20465;-91
2022/12/03 03:51:53;;;;;;;12.30;4.97;;;4.20;99.90;;;;;;6318950;22;20385;-95
2022/12/03 03:54:20;;;;;;;14.77;5.50;;;4.20;99.90;;;;;;6319087;22;20062;-91
2022/12/03 03:56:45;;;;;;;12.27;5.07;;;4.20;99.90;;;;;;6319566;22;20010;-94
2022/12/03 03:59:12;;;;;;;13.20;5.57;;;4.20;99.90;;;;;;6320500;22;20045;-95
2022/12/03 04:01:38;;;;;;;12.25;4.88;;;4.10;99.90;;;;;;6320105;22;20058;-95
2022/12/03 04:04:10;;;;;;;15.80;5.67;;;4.10;99.90;;;;;;6294750;22;20049;-96
2022/12/03 04:06:35;;;;;;;11.32;4.95;;;4.10;99.90;;;;;;6319815;22;20020;-95
2022/12/03 04:09:01;;;;;;;13.02;5.03;;;4.10;99.90;;;;;;6319715;22;20097;-92
2022/12/03 04:14:11;;;;;;;12.30;5.75;;;4.10;99.90;;;;;;6314386;22;20019;-90
2022/12/03 04:16:37;;;;;;;12.80;5.32;;;4.10;99.90;;;;;;6291205;22;20050;-87
2022/12/03 04:19:05;;;;;;;10.48;5.03;;;4.00;99.90;;;;;;6311979;22;20026;-92
2022/12/03 04:24:15;;;;;;;11.27;5.25;;;4.00;99.90;;;;;;6320364;22;20023;-96
2022/12/03 04:29:25;;;;;;;13.60;5.13;;;3.90;99.90;;;;;;6295063;22;20148;-95
2022/12/03 04:37:19;;;;;;;13.70;5.68;;;3.80;99.90;;;;;;6314250;22;20015;-92
2022/12/03 04:39:45;;;;;;;14.30;5.50;;;3.80;99.90;;;;;;6262694;22;20490;-95
2022/12/03 04:42:10;;;;;;;13.57;5.27;;;3.80;99.90;;;;;;6287938;22;20064;-93
2022/12/03 04:44:36;;;;;;;12.50;5.33;;;3.80;99.90;;;;;;6287414;22;20011;-93
2022/12/03 04:47:08;;;;;;;12.83;5.50;;;3.80;99.90;;;;;;6262280;22;20072;-93
2022/12/03 04:49:36;;;;;;;10.55;5.05;;;3.80;99.90;;;;;;6287118;22;20042;-94
2022/12/03 04:52:02;;;;;;;12.63;5.20;;;3.70;99.90;;;;;;6287820;22;20076;-92
2022/12/03 04:54:28;;;;;;;15.95;5.78;;;3.70;99.90;;;;;;6287073;22;20015;-96
2022/12/03 04:56:54;;;;;;;16.03;6.27;;;3.70;99.90;;;;;;6288007;22;20014;-91
2022/12/03 04:59:20;;;;;;;13.02;5.43;;;3.70;99.90;;;;;;6287588;22;20300;-93
2022/12/03 05:01:46;;;;;;;14.43;5.83;;;3.70;99.90;;;;;;6262054;22;20057;-96
2022/12/03 05:04:13;;;;;;;15.03;5.27;;;3.70;99.90;;;;;;6288239;22;20018;-96
2022/12/03 05:06:39;;;;;;;12.50;5.80;;;3.70;99.90;;;;;;6288819;22;20010;-96
2022/12/03 05:09:05;;;;;;;16.55;5.78;;;3.60;99.90;;;;;;6287599;22;20757;-93
2022/12/03 05:11:31;;;;;;;16.07;6.10;;;3.60;99.90;;;;;;6290438;22;20109;-94
2022/12/03 05:13:57;;;;;;;16.80;5.63;;;3.60;99.90;;;;;;6292311;22;20022;-93
2022/12/03 05:16:22;;;;;;;14.73;6.00;;;3.60;99.90;;;;;;6318283;22;20013;-89
2022/12/03 05:18:48;;;;;;;14.47;5.47;;;3.60;99.90;;;;;;6317846;22;20025;-91
2022/12/03 05:21:14;;;;;;;13.05;5.57;;;3.60;99.90;;;;;;6318272;22;20021;-91
2022/12/03 05:23:40;;;;;;;13.18;5.55;;;3.60;99.90;;;;;;6292414;22;20014;-91
2022/12/03 05:26:06;;;;;;;12.15;4.90;;;3.60;99.90;;;;;;6292674;22;20022;-93
2022/12/03 05:28:31;;;;;;;13.70;5.57;;;3.60;99.90;;;;;;6317752;22;20075;-90
2022/12/03 05:31:03;;;;;;;16.93;5.53;;;3.60;99.90;;;;;;6317225;22;20015;-91
2022/12/03 05:33:30;;;;;;;13.32;5.32;;;3.60;99.90;;;;;;6318047;22;20022;-94
2022/12/03 05:38:45;;;;;;;15.15;5.75;;;3.60;99.90;;;;;;6377478;22;20084;-92
2022/12/03 05:44:04;;;;;;;12.18;4.60;;;3.60;99.90;;;;;;6401947;22;20462;-91
2022/12/03 05:46:30;;;;;;;11.93;5.20;;;3.60;99.90;;;;;;6349063;22;20131;-93
2022/12/03 05:48:55;;;;;;;13.60;4.63;;;3.50;99.90;;;;;;6375737;22;20021;-91
2022/12/03 05:51:21;;;;;;;15.25;6.18;;;3.60;99.90;;;;;;6375301;22;20247;-91
2022/12/03 05:53:47;;;;;;;12.10;4.68;;;3.60;99.90;;;;;;6375822;22;20014;-92
2022/12/03 05:56:12;;;;;;;11.97;5.20;;;3.60;99.90;;;;;;6349532;22;20016;-92
2022/12/03 05:58:40;;;;;;;13.93;4.83;;;3.60;99.90;;;;;;6375788;22;20014;-90
2022/12/03 06:01:07;;;;;;;11.00;5.00;;;3.60;99.90;;;;;;6350517;22;20038;-95
2022/12/03 06:03:33;;;;;;;10.85;4.82;;;3.60;99.90;;;;;;6377303;22;20110;-94
2022/12/03 06:05:58;;;;;;;12.17;4.90;;;3.60;99.90;;;;;;6377336;22;20013;-95
2022/12/03 06:08:27;;;;;;;14.23;5.45;;;3.60;99.90;;;;;;6385112;22;20073;-92
2022/12/03 06:10:53;;;;;;;12.25;4.95;;;3.60;99.90;;;;;;6398327;22;20014;-94
2022/12/03 06:13:18;;;;;;;10.57;4.65;;;3.60;99.90;;;;;;6382186;22;20147;-95
2022/12/03 06:16:10;;;;;;;12.88;4.70;;;3.60;99.90;;;;;;6375048;22;20014;-92
2022/12/03 06:18:35;;;;;;;12.40;4.95;;;3.60;99.90;;;;;;6371754;22;20505;-91
2022/12/03 06:21:01;;;;;;;11.15;4.13;;;3.60;99.90;;;;;;6375303;22;20049;-94
2022/12/03 06:23:27;;;;;;;14.13;5.10;;;3.60;99.90;;;;;;6349568;22;20093;-93
2022/12/03 06:25:53;;;;;;;9.60;4.17;;;3.60;99.90;;;;;;6375994;22;20014;-96
2022/12/03 06:28:18;;;;;;;11.17;4.63;;;3.60;99.90;;;;;;6349556;22;20013;-94
2022/12/03 06:30:44;;;;;;;12.93;5.30;;;3.60;99.90;;;;;;6375667;22;20014;-95
2022/12/03 06:33:10;;;;;;;11.60;4.00;;;3.50;99.90;;;;;;6377279;22;20032;-93
2022/12/03 06:35:35;;;;;;;12.70;4.77;;;3.50;99.90;;;;;;6375259;22;20021;-92
2022/12/03 06:38:01;;;;;;;15.23;5.70;;;3.50;99.90;;;;;;6375777;22;20018;-95
2022/12/03 06:40:27;;;;;;;14.13;4.70;;;3.50;99.90;;;;;;6375590;22;20017;-96
2022/12/03 06:42:53;;;;;;;13.93;5.47;;;3.50;99.90;;;;;;6349393;22;20018;-94
2022/12/03 06:45:18;;;;;;;11.00;4.50;;;3.50;99.90;;;;;;6375504;22;20010;-94
2022/12/03 06:47:44;;;;;;;10.47;4.67;;;3.40;99.90;;;;;;6348604;22;20010;-92
2022/12/03 06:50:11;;;;;;;9.37;3.73;;;3.40;99.90;;;;;;6349408;22;20022;-92
2022/12/03 06:52:37;;;;;;;;;;;3.40;99.90;;;;;;6350324;22;20018;-93
2022/12/03 06:55:03;;;;;;;11.10;4.22;;;3.40;99.90;;;;;;6375562;22;20004;-93
2022/12/03 07:00:07;;;;;;;14.52;5.50;;;3.40;99.90;;;;;;6364317;22;20027;-92
2022/12/03 07:02:33;;;;;;;13.70;5.40;;;3.40;99.90;;;;;;6318077;22;20089;-96
2022/12/03 07:05:02;;;;;;;12.77;4.27;;;3.40;99.90;;;;;;6319923;22;20026;-95
2022/12/03 07:07:28;;;;;;;13.15;4.93;;;3.40;99.90;;;;;;6318017;22;20021;-94
2022/12/03 07:09:57;;;;;;;13.82;5.28;;;3.40;99.90;;;;;;6319111;22;20014;-95
2022/12/03 07:12:23;;;;;;;14.23;5.05;;;3.30;99.90;;;;;;6317449;22;20046;-94
2022/12/03 07:14:49;;;;;;;12.95;4.97;;;3.40;99.90;;;;;;6291615;22;20018;-93
2022/12/03 07:17:14;;;;;;;12.57;4.87;;;3.40;99.90;;;;;;6316986;22;20041;-95
2022/12/03 07:19:40;;;;;;;14.52;4.68;;;3.40;99.90;;;;;;6290565;22;20385;-92
2022/12/03 07:22:06;;;;;;;12.60;4.78;;;3.30;99.90;;;;;;6317695;22;20018;-95
2022/12/03 07:24:31;;;;;;;13.85;4.82;;;3.30;99.90;;;;;;6316669;22;20018;-88
2022/12/03 07:26:57;;;;;;;14.43;4.68;;;3.30;99.90;;;;;;6314975;22;20015;-90
2022/12/03 07:29:23;;;;;;;12.70;5.20;;;3.40;99.90;;;;;;6297229;22;20044;-88
2022/12/03 07:31:53;;;;;;;11.70;4.38;;;3.30;99.90;;;;;;6331982;22;20045;-87
2022/12/03 07:34:19;;;;;;;14.85;4.93;;;3.30;99.90;;;;;;6319986;22;20298;-96
2022/12/03 07:36:45;;;;;;;12.85;5.43;;;3.30;99.90;;;;;;6319701;22;20014;-95
2022/12/03 07:39:11;;;;;;;12.77;4.80;;;3.30;99.90;;;;;;6294610;22;20101;-89
2022/12/03 07:41:37;;;;;;;12.20;5.45;;;3.30;99.90;;;;;;6344270;22;20014;-88
2022/12/03 07:44:03;;;;;;;13.93;4.47;;;3.20;99.90;;;;;;6293205;22;20072;-88
2022/12/03 07:46:29;;;;;;;13.45;4.35;;;3.30;99.90;;;;;;6343695;22;20014;-87
2022/12/03 07:48:54;;;;;;;16.27;5.82;;;3.20;99.90;;;;;;6320281;22;20014;-88
2022/12/03 07:51:20;;;;;;;14.60;4.80;;;3.20;99.90;;;;;;6319542;22;20042;-89
2022/12/03 07:53:46;;;;;;;12.00;4.80;;;3.20;99.90;;;;;;6371003;22;20076;-95
2022/12/03 07:56:12;;;;;;;14.27;4.70;;;3.20;99.90;;;;;;6345056;22;20010;-94
2022/12/03 07:58:37;;;;;;;14.30;5.23;;;3.20;99.90;;;;;;6318822;22;20093;-96
2022/12/03 08:01:03;;;;;;;11.43;4.13;;;3.10;99.90;;;;;;6319270;22;20018;-94
2022/12/03 08:03:29;;;;;;;13.75;5.20;;;3.10;99.90;;;;;;6318621;22;20494;-90
2022/12/03 08:05:55;;;;;;;11.43;4.63;;;3.10;99.90;;;;;;6345157;22;20014;-88
2022/12/03 08:08:20;;;;;;;13.43;4.47;;;3.10;99.90;;;;;;6292988;22;20011;-89
2022/12/03 08:10:46;;;;;;;14.73;6.10;;;3.10;99.90;;;;;;6292959;22;20018;-93
2022/12/03 08:13:14;;;;;;;17.60;5.90;;;3.20;99.90;;;;;;6318929;22;20011;-87
2022/12/03 08:15:40;;;;;;;16.20;5.40;;;3.10;99.90;;;;;;6345274;22;20018;-91
2022/12/03 08:18:17;;;;;;;13.23;5.35;;;3.10;99.90;;;;;;6293761;22;20026;-94
2022/12/03 08:20:45;;;;;;;11.85;4.30;;;3.10;99.90;;;;;;6347854;22;20454;-94
2022/12/03 08:23:17;;;;;;;13.80;5.25;;;3.10;99.90;;;;;;6325817;22;20025;-91
2022/12/03 08:25:44;;;;;;;12.90;4.97;;;3.00;99.90;;;;;;6357893;22;20061;-89
2022/12/03 08:28:14;;;;;;;13.35;5.40;;;3.10;99.90;;;;;;6319960;22;20046;-95
2022/12/03 08:30:41;;;;;;;16.08;6.75;;;3.00;99.90;;;;;;6322539;22;20015;-90
2022/12/03 08:33:19;;;;;;;17.92;5.63;;;3.00;99.90;;;;;;6319499;22;20423;-88
2022/12/03 08:35:49;;;;;;;16.25;5.28;;;3.00;99.90;;;;;;6319085;22;20067;-89
2022/12/03 08:38:16;;;;;;;13.30;5.05;;;3.00;99.90;;;;;;6320539;22;20018;-95
2022/12/03 08:41:12;;;;;;;14.77;5.68;;;3.00;99.90;;;;;;6321518;22;20014;-89
2022/12/03 08:43:43;;;;;;;13.88;5.57;;;3.00;99.90;;;;;;6317928;22;20026;-87
2022/12/03 08:46:18;;;;;;;16.67;6.30;;;3.00;99.90;;;;;;6319954;22;20014;-88
2022/12/03 08:48:44;;;;;;;14.93;5.95;;;3.00;99.90;;;;;;6344766;22;20451;-95
2022/12/03 08:51:24;;;;;;;13.40;4.90;;;2.90;99.90;;;;;;6371876;22;20097;-90
2022/12/03 08:53:51;;;;;;;16.85;5.55;;;2.90;99.90;;;;;;6317726;22;20018;-95
2022/12/03 08:56:16;;;;;;;;;;;2.90;99.90;;;;;;6372562;22;20451;-88
2022/12/03 08:58:45;;;;;;;14.65;6.10;;;2.90;99.90;;;;;;6344726;22;19910;-93
2022/12/03 09:01:10;;;;;;;15.63;5.82;;;2.90;99.90;;;;;;6318897;22;20458;-89
2022/12/03 09:03:39;;;;;;;13.55;5.80;;;2.90;99.90;;;;;;6343794;22;20089;-87
2022/12/03 09:06:06;;;;;;;14.93;5.53;;;2.90;99.90;;;;;;6343460;22;20014;-96
2022/12/03 09:08:31;;;;;;;16.90;6.73;;;2.90;99.90;;;;;;6292034;22;20023;-87
2022/12/03 09:10:57;;;;;;;12.37;5.53;;;2.90;99.90;;;;;;6344938;22;20407;-95
2022/12/03 09:13:23;;;;;;;15.95;6.45;;;2.90;99.90;;;;;;6267950;22;20083;-88
2022/12/03 09:15:48;;;;;;;15.30;5.90;;;2.90;99.90;;;;;;6319712;22;20046;-87
2022/12/03 09:18:14;;;;;;;15.30;6.18;;;2.80;99.90;;;;;;6293117;22;20010;-90
2022/12/03 09:20:40;;;;;;;17.85;6.30;;;2.80;99.90;;;;;;6343615;22;20015;-95
2022/12/03 09:23:06;;;;;;;15.07;6.30;;;2.90;99.90;;;;;;6372874;22;20018;-88
2022/12/03 09:25:32;;;;;;;14.43;5.93;;;2.80;99.90;;;;;;6354811;22;20014;-84
2022/12/03 09:28:00;;;;;;;17.10;6.28;;;2.80;99.90;;;;;;6363877;22;20009;-88
2022/12/03 09:30:29;;;;;;;17.80;6.50;;;2.90;99.90;;;;;;6376746;22;20014;-94
2022/12/03 09:32:54;;;;;;;16.20;6.53;;;2.80;99.90;;;;;;6344059;22;20469;-87
2022/12/03 09:35:20;;;;;;;17.17;6.47;;;2.80;99.90;;;;;;6375863;22;20025;-90
2022/12/03 09:37:46;;;;;;;17.10;6.13;;;2.80;99.90;;;;;;6325283;22;20386;-89
2022/12/03 09:40:12;;;;;;;15.40;5.60;;;2.80;99.90;;;;;;6324792;22;20028;-90
2022/12/03 09:42:38;;;;;;;17.17;6.33;;;2.80;99.90;;;;;;6321249;22;20022;-93
2022/12/03 09:45:11;;;;;;;20.00;7.40;;;2.80;99.90;;;;;;6295693;22;20279;-96
2022/12/03 09:47:40;;;;;;;17.83;6.32;;;2.80;99.90;;;;;;6321724;22;20065;-94
2022/12/03 09:50:10;;;;;;;16.45;6.00;;;2.80;99.90;;;;;;6385262;22;20011;-96
2022/12/03 09:52:36;;;;;;;15.35;6.30;;;2.80;99.90;;;;;;6328745;22;20053;-90
2022/12/03 09:55:11;;;;;;;15.77;6.18;;;2.80;99.90;;;;;;6332901;22;20018;-86
2022/12/03 09:57:38;;;;;;;16.15;6.38;;;2.80;99.90;;;;;;6359684;22;20481;-92
2022/12/03 10:00:20;;;;;;;13.30;6.60;;;2.80;99.90;;;;;;6295137;22;20026;-87
2022/12/03 10:02:48;;;;;;;18.15;6.60;;;2.80;99.90;;;;;;6328376;22;20064;-96
2022/12/03 10:07:50;;;;;;;16.75;6.65;;;2.70;99.90;;;;;;6387911;22;20082;-95
2022/12/03 10:10:22;;;;;;;17.98;6.93;;;2.70;99.90;;;;;;6401744;22;20486;-95
2022/12/03 10:12:52;;;;;;;14.90;5.75;;;2.70;99.90;;;;;;6400337;22;20467;-96
2022/12/03 10:15:20;;;;;;;16.13;6.28;;;2.70;99.90;;;;;;6375353;22;20018;-91
2022/12/03 10:17:48;;;;;;;17.65;5.93;;;2.70;99.90;;;;;;6374984;22;20025;-88
2022/12/03 10:20:15;;;;;;;19.30;6.20;;;2.70;99.90;;;;;;6374925;22;20017;-96
2022/12/03 10:22:41;;;;;;;16.98;6.25;;;2.70;99.90;;;;;;6403301;22;20089;-90
2022/12/03 10:25:14;;;;;;;17.85;6.15;;;2.70;99.90;;;;;;6349490;22;20072;-88
2022/12/03 10:27:41;;;;;;;14.45;5.10;;;2.70;99.90;;;;;;6401697;22;20025;-91
2022/12/03 10:30:16;;;;;;;15.30;5.68;;;2.70;99.90;;;;;;6401376;22;20014;-87
2022/12/03 10:32:47;;;;;;;15.93;6.78;;;2.70;99.90;;;;;;6374303;22;20018;-90
2022/12/03 10:35:22;;;;;;;14.90;6.07;;;2.70;99.90;;;;;;6374848;22;20010;-89
2022/12/03 10:38:17;;;;;;;13.52;5.50;;;2.70;99.90;;;;;;6401806;22;20435;-95
2022/12/03 10:40:44;;;;;;;17.67;6.80;;;2.80;99.90;;;;;;6402203;22;20338;-88
2022/12/03 10:43:19;;;;;;;;;;;2.80;99.90;;;;;;6380448;22;20021;-86
2022/12/03 10:46:02;;;;;;;15.18;5.70;;;2.80;99.90;;;;;;6379507;22;19997;-86
2022/12/03 10:48:28;;;;;;;15.80;5.82;;;2.80;99.90;;;;;;6332729;22;20456;-93
2022/12/03 10:51:12;;;;;;;18.25;6.72;;;2.80;99.90;;;;;;6380508;22;20086;-88
2022/12/03 10:53:39;;;;;;;13.07;5.63;;;2.80;99.90;;;;;;6320165;22;20014;-95
2022/12/03 10:56:09;;;;;;;16.33;5.38;;;2.90;99.90;;;;;;6368487;22;20050;-88
2022/12/03 10:58:38;;;;;;;16.65;6.60;;;2.90;99.90;;;;;;6316596;22;20428;-87
2022/12/03 11:01:18;;;;;;;15.00;6.30;;;2.90;99.90;;;;;;6343497;22;20024;-92
2022/12/03 11:03:44;;;;;;;17.38;6.07;;;2.90;99.90;;;;;;6343032;22;20573;-92
2022/12/03 11:06:16;;;;;;;17.52;6.38;;;2.90;99.90;;;;;;6322838;22;20052;-87
2022/12/03 11:08:47;;;;;;;13.98;5.32;;;2.90;99.90;;;;;;6322447;22;20018;-88
2022/12/03 11:11:19;;;;;;;16.52;6.60;;;2.90;99.90;;;;;;6319608;22;20022;-93
2022/12/03 11:13:51;;;;;;;16.02;5.88;;;2.90;99.90;;;;;;6343098;22;20022;-89
2022/12/03 11:16:39;;;;;;;15.18;5.63;;;2.90;99.90;;;;;;6326618;22;20010;-94
2022/12/03 11:19:16;;;;;;;16.45;6.00;;;2.90;99.90;;;;;;6377595;22;20499;-96
2022/12/03 11:22:03;;;;;;;14.75;6.15;;;2.90;99.90;;;;;;6351485;22;20093;-90
2022/12/03 11:24:34;;;;;;;23.38;7.93;;;2.80;99.90;;;;;;6377124;22;20013;-88
2022/12/03 11:27:17;;;;;;;21.67;6.10;;;2.80;99.90;;;;;;6310673;22;20068;-93
2022/12/03 11:29:57;;;;;;;18.20;6.97;;;2.70;99.90;;;;;;6376499;22;20026;-88
2022/12/03 11:32:38;;;;;;;18.33;5.82;;;2.70;99.90;;;;;;6404326;22;20101;-94
2022/12/03 11:35:22;;;;;;;19.00;7.00;;;2.70;99.90;;;;;;6376965;22;20018;-96
2022/12/03 11:37:48;;;;;;;15.27;6.30;;;2.70;99.90;;;;;;6404750;22;20010;-85
2022/12/03 11:40:17;;;;;;;16.98;7.13;;;2.70;99.90;;;;;;6379583;22;20114;-96
2022/12/03 11:42:45;;;;;;;17.25;6.80;;;2.70;99.90;;;;;;6379473;22;20018;-87
2022/12/03 11:45:30;;;;;;;14.80;6.60;;;2.70;99.90;;;;;;6404334;22;20014;-89
2022/12/03 11:48:01;;;;;;;15.88;5.47;;;2.70;99.90;;;;;;6403279;22;20381;-88
2022/12/03 11:50:41;;;;;;;20.15;7.63;;;2.70;99.90;;;;;;6376753;22;20018;-90
2022/12/03 11:53:13;;;;;;;16.98;6.30;;;2.70;99.90;;;;;;6376519;22;20092;-92
2022/12/03 11:55:47;;;;;;;14.55;6.57;;;2.70;99.90;;;;;;6403290;22;20013;-88
2022/12/03 11:58:24;;;;;;;18.00;7.65;;;2.70;99.90;;;;;;6376629;22;20453;-94
2022/12/03 12:00:58;;;;;;;18.05;6.30;;;2.70;99.90;;;;;;6376264;22;20018;-90
2022/12/03 12:03:30;;;;;;;15.25;6.10;;;2.70;99.90;;;;;;6376126;22;20018;-92
2022/12/03 12:06:16;;;;;;;15.15;6.00;;;2.70;99.90;;;;;;6377266;22;20527;-91
2022/12/03 12:08:51;;;;;;;16.70;6.50;;;2.70;99.90;;;;;;6382308;22;20028;-89
2022/12/03 12:11:19;;;;;;;17.98;6.95;;;2.70;99.90;;;;;;6376273;22;20021;-95
2022/12/03 12:13:53;;;;;;;18.70;6.80;;;2.70;99.90;;;;;;6402224;22;20018;-90
2022/12/03 12:16:44;;;;;;;16.38;7.05;;;2.70;99.90;;;;;;6400693;22;20450;-94
2022/12/03 12:19:33;;;;;;;15.48;5.63;;;2.70;99.90;;;;;;6375805;22;20022;-94
2022/12/03 12:22:26;;;;;;;18.33;6.95;;;2.70;99.90;;;;;;6376103;22;20018;-93
2022/12/03 12:24:54;;;;;;;19.08;6.38;;;2.70;99.90;;;;;;6375908;22;20067;-90
2022/12/03 12:27:20;;;;;;;15.88;6.65;;;2.70;99.90;;;;;;6402389;22;20047;-89
2022/12/03 12:29:52;;;;;;;14.77;5.85;;;2.70;99.90;;;;;;6375562;22;20018;-89
2022/12/03 12:32:21;;;;;;;15.35;6.30;;;2.70;99.90;;;;;;6402668;22;20014;-93
2022/12/03 12:34:52;;;;;;;16.27;6.47;;;2.70;99.90;;;;;;6375959;22;20021;-93
2022/12/03 12:37:57;;;;;;;16.27;6.35;;;2.70;99.90;;;;;;6376101;22;20009;-88
2022/12/03 12:40:28;;;;;;;21.55;7.82;;;2.70;99.90;;;;;;6389403;22;20025;-94
2022/12/03 12:43:31;;;;;;;16.27;6.25;;;2.70;99.90;;;;;;6405097;22;20010;-89
2022/12/03 12:46:07;;;;;;;16.40;6.57;;;2.70;99.90;;;;;;6280662;22;20011;-95
2022/12/03 12:48:34;;;;;;;17.67;7.55;;;2.60;99.90;;;;;;6363482;22;20380;-88
2022/12/03 12:51:12;;;;;;;15.13;6.78;;;2.60;99.90;;;;;;6375209;22;20022;-88
2022/12/03 12:53:41;;;;;;;17.90;6.75;;;2.60;99.90;;;;;;6377682;22;20017;-94
2022/12/03 12:56:24;;;;;;;15.88;6.35;;;2.60;99.90;;;;;;6376835;22;20013;-91
2022/12/03 12:59:35;;;;;;;15.75;6.65;;;2.60;99.90;;;;;;6377242;22;20062;-95
2022/12/03 13:02:58;;;;;;;17.10;6.72;;;2.60;99.90;;;;;;6401496;22;20012;-89
2022/12/03 13:05:26;;;;;;;19.60;7.50;;;2.60;99.90;;;;;;6348174;22;20017;-94
2022/12/03 13:07:53;;;;;;;19.33;6.93;;;2.60;99.90;;;;;;6383935;22;20057;-87
2022/12/03 13:10:36;;;;;;;;;;;2.50;99.90;;;;;;6343089;22;20011;-89
2022/12/03 13:13:15;;;;;;;18.83;6.75;;;2.50;99.90;;;;;;6316057;22;19921;-87
2022/12/03 13:16:20;;;;;;;14.38;6.43;;;2.50;99.90;;;;;;6343469;22;20324;-94
2022/12/03 13:18:53;;;;;;;17.60;7.40;;;2.50;99.90;;;;;;6317178;22;20427;-94
2022/12/03 13:21:23;;;;;;;21.98;6.75;;;2.50;99.90;;;;;;6369443;22;20014;-90
2022/12/03 13:23:57;;;;;;;15.73;5.93;;;2.50;99.90;;;;;;6317065;22;20059;-89
2022/12/03 13:26:31;;;;;;;16.63;7.18;;;2.60;99.90;;;;;;6369028;22;20026;-89
2022/12/03 13:28:58;;;;;;;19.45;6.97;;;2.50;99.90;;;;;;6342030;22;20050;-89
2022/12/03 13:31:26;;;;;;;17.52;6.97;;;2.60;99.90;;;;;;6316498;22;20357;-93
2022/12/03 13:33:54;;;;;;;14.63;6.82;;;2.50;99.90;;;;;;6317048;22;20378;-89
2022/12/03 13:36:24;;;;;;;22.55;7.40;;;2.50;99.90;;;;;;6317265;22;20014;-88
2022/12/03 13:38:49;;;;;;;20.70;7.10;;;2.50;99.90;;;;;;6371056;22;20018;-86
2022/12/03 13:44:15;;;;;;;;;;;2.50;99.90;;;;;;6342294;22;20097;-87